Share

Gillette, WY

RAWS ECHETA WY US (MECEW4) Elev 4396 ft | 44.47 °N, 105.84 °W | Change Station

Current weather conditions updated 46 minutes ago

Clear
Clear
35 °F
Feels Like 32 °F
N
4
Wind Variable Wind from SSE
Gusts 6.0 mph
Sunrise 6:11 AM
Sunset 7:52 PM
Moon Waning Gibbous

Today is forecast to be Much Cooler than yesterday.

Pressure 29.94 in
Visibility 10.0 miles
Clouds Clear
Windchill 32 °F
Dew Point 28 °F
Humidity 74%
Rainfall 0.00 in
Snow Depth Not available.
UV 0 out of 16
Pollen 10.30 out of 12
Air Quality Not available.
Flu Activity Sporadic
METAR KGCC 190953Z AUTO 21005KT 10SM CLR M03/M05 A2996 RMK AO2 SLP138 T10331050 $

More Conditions Fewer Conditions

Pressure 29.94 in
Visibility 10.0 miles
Clouds Clear
Windchill 32 °F
Dew Point 28 °F
Humidity 74%
Rainfall 0.00 in
Snow Depth Not available.
UV 0 out of 16
Pollen 10.30 out of 12
Air Quality Not available.
Flu Activity Sporadic
METAR KGCC 190953Z AUTO 21005KT 10SM CLR M03/M05 A2996 RMK AO2 SLP138 T10331050 $

More Conditions Fewer Conditions

10-Day Weather Forecast

Almanac

Astronomy

Apr. 19, 2014 Rise Set
Actual Time 6:11 AM MDT 7:52 PM MDT
Civil Twilight 5:41 AM MDT 8:23 PM MDT
Nautical Twilight 5:03 AM MDT 9:01 PM MDT
Astronomical Twilight 4:23 AM MDT 9:41 PM MDT
Moon No Moon Rise 9:27 AM MDT
Length of Visible Light 14h 42m
Length of Day
13h 40m
Tomorrow will be 2m 54s longer.
Waning Gibbous, 81% of the Moon is Illuminated
Today
Waning Gibbous
Apr 22
Last Quarter
Apr 29
New
May 6
First Quarter
May 14
Full

Today's Extremes

State Highs State Lows

Community

  • Bleeding Hearts
    Bleeding Hearts
  • Sunset Silhouettes
    Sunset Silhouettes
  • FL sunset Perico Isle
    FL sunset Perico Isle
  • Cloudy spring view
    Cloudy spring view
  • Old barn
    Old barn

WunderPhotos

Upload Photos

1,702,678 photos uploaded!

WunderBlogs® & News

Nearby

Snow Depth

Station Depth Elevation
Casper Mountain 52 in 7850 ft
Reno Hill 58 in 8500 ft
Laprele Creek 26 in 8375 ft
Windy Peak 26 in 7900 ft
Townsend Creek 25 in 8700 ft

Coastal Water Temperatures

Place Temperature
No Stations Reporting

Earthquake Activity

City Distance Mag. Time & Date
No recent earthquake activity has been reported nearby.
Minimum magnitude displayed is 2.5.

Nearby Weather Stations

Station Location Temp. Windchill Dew Point Humidity Wind Precip. Elev Updated Type
RAWS ECHETA WY, Gillette, WY 35 °F 32 °F 28 °F 74% SSE  at  4 mph 0.00 in / hr 4396 ft 3:51 AM MDT MADIS
(North Gillette), Gillette, WY 31.8 °F 32 °F 24 °F 73% NW  at  0.0 mph 0.00 in / hr 4610 ft 4:37 AM MDT Rapid Fire

Show More Stations Show Fewer Stations

What do you think?

We're not finished. Please let us know what you like, what you don't like, and what you are still missing.